createdAt,value
2022-10-03T00:00:02.200Z,10.42
2022-10-03T00:05:02.155Z,10.4
2022-10-03T00:10:01.962Z,10.33
2022-10-03T00:15:01.916Z,10.26
2022-10-03T00:20:01.925Z,10.16
2022-10-03T00:25:01.560Z,10
2022-10-03T00:30:01.427Z,10
2022-10-03T00:35:01.641Z,9.79
2022-10-03T00:40:01.922Z,9.8
2022-10-03T00:45:02.161Z,9.75
2022-10-03T00:50:01.813Z,9.75
2022-10-03T00:55:01.748Z,9.65
2022-10-03T01:00:01.485Z,9.65
2022-10-03T01:05:02.169Z,9.6
2022-10-03T01:10:01.445Z,9.66
2022-10-03T01:15:01.593Z,9.68
2022-10-03T01:20:01.538Z,9.68
2022-10-03T01:25:01.462Z,9.66
2022-10-03T01:30:01.781Z,9.65
2022-10-03T01:35:01.911Z,9.57
2022-10-03T01:40:01.833Z,9.59
2022-10-03T01:45:02.019Z,9.59
2022-10-03T01:50:02.176Z,9.57
2022-10-03T01:55:01.298Z,9.55
2022-10-03T02:00:02.193Z,9.53
2022-10-03T02:05:01.789Z,9.46
2022-10-03T02:10:02.086Z,9.34
2022-10-03T02:15:01.768Z,9.37
2022-10-03T02:20:01.799Z,9.36
2022-10-03T02:25:01.488Z,9.4
2022-10-03T02:30:02.244Z,9.49
2022-10-03T02:35:01.408Z,9.6
2022-10-03T02:40:01.631Z,9.74
2022-10-03T02:45:01.716Z,9.85
2022-10-03T02:50:01.429Z,9.91
2022-10-03T02:55:01.452Z,9.98
2022-10-03T03:00:01.421Z,10.05
2022-10-03T03:05:01.607Z,10.13
2022-10-03T03:10:01.941Z,10.14
2022-10-03T03:15:02.190Z,10.18
2022-10-03T03:20:01.712Z,10.23
2022-10-03T03:25:01.963Z,10.16
2022-10-03T03:30:01.957Z,10.24
2022-10-03T03:35:01.939Z,10.23
2022-10-03T03:40:02.255Z,10.19
2022-10-03T03:45:01.607Z,10.21
2022-10-03T03:50:01.955Z,10.21
2022-10-03T03:55:01.692Z,10.2
2022-10-03T04:00:02.089Z,10.11
2022-10-03T04:05:01.742Z,10.03
2022-10-03T04:10:01.924Z,9.96
2022-10-03T04:15:01.870Z,9.96
2022-10-03T04:20:01.903Z,9.88
2022-10-03T04:25:01.817Z,9.95
2022-10-03T04:30:01.355Z,9.98
2022-10-03T04:35:01.335Z,10.01
2022-10-03T04:40:02.032Z,10.07
2022-10-03T04:45:02.257Z,10.01
2022-10-03T04:50:01.923Z,9.95
2022-10-03T04:55:01.735Z,9.91
2022-10-03T05:00:01.796Z,9.8
2022-10-03T05:05:02.108Z,9.68
2022-10-03T05:10:05.841Z,9.64
2022-10-03T05:15:01.804Z,9.59
2022-10-03T05:20:02.095Z,9.57
2022-10-03T05:25:01.871Z,9.6
2022-10-03T05:30:02.092Z,9.52
2022-10-03T05:35:01.425Z,9.54
2022-10-03T05:40:02.189Z,9.59
2022-10-03T05:45:01.235Z,9.62
2022-10-03T05:50:05.542Z,9.63
2022-10-03T05:55:01.396Z,9.66
2022-10-03T06:00:02.080Z,9.74
2022-10-03T06:05:01.337Z,9.8
2022-10-03T06:10:01.741Z,9.84
2022-10-03T06:15:01.696Z,9.93
2022-10-03T06:20:01.940Z,10.11
2022-10-03T06:25:02.046Z,10.13
2022-10-03T06:30:01.691Z,10.44
2022-10-03T06:35:02.140Z,10.58
2022-10-03T06:40:03.258Z,10.64
2022-10-03T06:45:01.439Z,10.7
2022-10-03T06:50:01.711Z,10.81
2022-10-03T06:55:02.248Z,10.83
2022-10-03T07:00:02.400Z,10.95
2022-10-03T07:05:02.189Z,11.04
2022-10-03T07:10:01.389Z,11.34
2022-10-03T07:15:01.861Z,11.47
2022-10-03T07:20:01.387Z,11.57
2022-10-03T07:25:01.348Z,11.84
2022-10-03T07:30:01.965Z,11.92
2022-10-03T07:35:02.229Z,12.06
2022-10-03T07:40:01.676Z,12
2022-10-03T07:45:02.217Z,11.98
2022-10-03T07:50:01.431Z,12.31
2022-10-03T07:55:02.096Z,12.21
2022-10-03T08:00:02.378Z,12.14
2022-10-03T08:05:01.740Z,12.16
2022-10-03T08:10:01.772Z,12.34
2022-10-03T08:15:01.423Z,12.16
2022-10-03T08:20:01.263Z,12.07
2022-10-03T08:25:03.146Z,12.13
2022-10-03T08:30:01.950Z,12.23
2022-10-03T08:35:01.764Z,12.19
2022-10-03T08:40:01.378Z,12.13
2022-10-03T08:45:01.408Z,12.19
2022-10-03T08:50:05.314Z,12.26
2022-10-03T08:55:01.719Z,12.35
2022-10-03T09:00:01.690Z,12.61
2022-10-03T09:05:01.454Z,12.71
2022-10-03T09:10:01.863Z,12.9
2022-10-03T09:15:02.092Z,13.15
2022-10-03T09:20:01.967Z,13.51
2022-10-03T09:25:01.621Z,13.52
2022-10-03T09:30:01.828Z,13.56
2022-10-03T09:35:06.184Z,13.75
2022-10-03T09:40:01.636Z,13.56
2022-10-03T09:45:02.026Z,13.7
2022-10-03T09:50:02.214Z,13.91
2022-10-03T09:55:01.245Z,13.73
2022-10-03T10:00:02.274Z,13.92
2022-10-03T10:05:02.094Z,14.14
2022-10-03T10:10:02.174Z,14.45
2022-10-03T10:15:01.588Z,14.65
2022-10-03T10:20:01.806Z,14.45
2022-10-03T10:25:01.606Z,14.32
2022-10-03T10:30:01.577Z,14.24
2022-10-03T10:35:01.644Z,14.42
2022-10-03T10:40:01.695Z,14.47
2022-10-03T10:45:02.279Z,14.47
2022-10-03T10:50:01.777Z,14.59
2022-10-03T10:55:01.459Z,14.57
2022-10-03T11:00:01.578Z,14.69
2022-10-03T11:05:01.425Z,14.59
2022-10-03T11:10:01.800Z,14.56
2022-10-03T11:15:02.117Z,14.52
2022-10-03T11:20:01.525Z,14.48
2022-10-03T11:25:01.444Z,14.55
2022-10-03T11:30:01.806Z,14.71
2022-10-03T11:35:01.480Z,14.75
2022-10-03T11:40:02.265Z,14.36
2022-10-03T11:45:01.238Z,14.32
2022-10-03T11:50:01.838Z,14.5
2022-10-03T11:55:01.440Z,14.75
2022-10-03T12:00:01.484Z,14.97
2022-10-03T12:05:02.137Z,15
2022-10-03T12:10:01.400Z,15.15
2022-10-03T12:15:01.312Z,15.21
2022-10-03T12:20:01.367Z,15.1
2022-10-03T12:25:02.109Z,14.96
2022-10-03T12:30:01.825Z,14.89
2022-10-03T12:35:02.087Z,14.73
2022-10-03T12:40:01.827Z,14.71
2022-10-03T12:45:02.164Z,14.77
2022-10-03T12:50:01.535Z,14.68
2022-10-03T12:55:02.181Z,14.77
2022-10-03T13:00:01.380Z,14.7
2022-10-03T13:05:02.227Z,14.75
2022-10-03T13:10:02.084Z,14.68
2022-10-03T13:15:01.694Z,14.66
2022-10-03T13:20:01.526Z,14.78
2022-10-03T13:25:01.440Z,15.07
2022-10-03T13:30:02.177Z,15.26
2022-10-03T13:35:02.054Z,15.28
2022-10-03T13:40:02.187Z,15.23
2022-10-03T13:45:01.483Z,15
2022-10-03T13:50:01.811Z,14.93
2022-10-03T13:55:02.142Z,14.97
2022-10-03T14:00:02.032Z,15.01
2022-10-03T14:05:01.936Z,15.01
2022-10-03T14:10:01.683Z,15.16
2022-10-03T14:15:01.529Z,15.37
2022-10-03T14:20:01.631Z,15.49
2022-10-03T14:25:01.362Z,15.53
2022-10-03T14:30:01.473Z,15.49
2022-10-03T14:35:01.375Z,15.39
2022-10-03T14:40:01.559Z,15.24
2022-10-03T14:45:01.513Z,15.22
2022-10-03T14:50:01.924Z,15.24
2022-10-03T14:55:01.426Z,15.19
2022-10-03T15:00:02.037Z,15.21
2022-10-03T15:05:01.778Z,15.19
2022-10-03T15:10:01.656Z,15.27
2022-10-03T15:15:01.686Z,15.13
2022-10-03T15:20:01.533Z,15.07
2022-10-03T15:25:01.639Z,15.01
2022-10-03T15:30:02.039Z,15.07
2022-10-03T15:35:02.222Z,15.08
2022-10-03T15:40:01.540Z,14.88
2022-10-03T15:45:01.700Z,14.71
2022-10-03T15:50:01.800Z,14.77
2022-10-03T15:55:11.887Z,14.71
2022-10-03T16:00:03.535Z,14.71
2022-10-03T16:05:01.557Z,14.65
2022-10-03T16:10:02.226Z,14.38
2022-10-03T16:15:01.814Z,14.27
2022-10-03T16:20:01.532Z,14.11
2022-10-03T16:25:02.195Z,14.03
2022-10-03T16:30:01.894Z,13.93
2022-10-03T16:35:02.159Z,13.74
2022-10-03T16:40:01.458Z,13.63
2022-10-03T16:45:01.625Z,13.51
2022-10-03T16:50:02.147Z,13.37
2022-10-03T16:55:01.716Z,13.19
2022-10-03T17:00:01.716Z,13.11
2022-10-03T17:05:02.192Z,12.95
2022-10-03T17:10:01.706Z,12.76
2022-10-03T17:15:02.425Z,12.65
2022-10-03T17:20:02.186Z,12.46
2022-10-03T17:25:01.505Z,12.35
2022-10-03T17:30:01.740Z,12.45
2022-10-03T17:35:01.932Z,12.51
2022-10-03T17:40:01.694Z,12.5
2022-10-03T17:45:01.986Z,12.41
2022-10-03T17:50:01.732Z,12.33
2022-10-03T17:55:01.971Z,12.28
2022-10-03T18:00:02.390Z,12.27
2022-10-03T18:05:01.424Z,12.15
2022-10-03T18:10:01.284Z,12.06
2022-10-03T18:15:01.861Z,12.05
2022-10-03T18:20:01.980Z,12.06
2022-10-03T18:25:01.382Z,12.06
2022-10-03T18:30:02.056Z,11.83
2022-10-03T18:35:01.367Z,11.78
2022-10-03T18:40:01.552Z,11.77
2022-10-03T18:45:02.002Z,11.81
2022-10-03T18:50:01.575Z,11.87
2022-10-03T18:55:01.440Z,11.82
2022-10-03T19:00:02.271Z,11.72
2022-10-03T19:05:01.515Z,11.66
2022-10-03T19:10:01.865Z,11.6
2022-10-03T19:15:02.397Z,11.55
2022-10-03T19:20:02.127Z,11.57
2022-10-03T19:25:01.478Z,11.54
2022-10-03T19:30:01.652Z,11.48
2022-10-03T19:35:01.901Z,11.52
2022-10-03T19:40:02.163Z,11.55
2022-10-03T19:45:02.164Z,11.56
2022-10-03T19:50:01.848Z,11.57
2022-10-03T19:55:02.044Z,11.56
2022-10-03T20:00:02.210Z,11.52
2022-10-03T20:05:01.339Z,11.42
2022-10-03T20:10:01.496Z,11.36
2022-10-03T20:15:02.141Z,11.34
2022-10-03T20:20:01.568Z,11.38
2022-10-03T20:25:01.922Z,11.41
2022-10-03T20:30:01.917Z,11.46
2022-10-03T20:35:01.743Z,11.48
2022-10-03T20:40:01.408Z,11.44
2022-10-03T20:45:02.072Z,11.36
2022-10-03T20:50:01.731Z,11.29
2022-10-03T20:55:01.553Z,11.28
2022-10-03T21:00:02.257Z,11.26
2022-10-03T21:05:02.008Z,11.25
2022-10-03T21:10:01.945Z,11.16
2022-10-03T21:15:02.481Z,11.18
2022-10-03T21:20:02.071Z,11.14
2022-10-03T21:25:01.818Z,11.08
2022-10-03T21:30:01.936Z,10.99
2022-10-03T21:35:01.752Z,10.94
2022-10-03T21:40:01.606Z,10.83
2022-10-03T21:45:02.256Z,10.74
2022-10-03T21:50:02.160Z,10.67
2022-10-03T21:55:02.160Z,10.45
2022-10-03T22:00:01.835Z,10.22
2022-10-03T22:05:01.890Z,10.07
2022-10-03T22:10:02.229Z,10.28
2022-10-03T22:15:01.741Z,10.1
2022-10-03T22:20:01.971Z,10.3
2022-10-03T22:25:02.114Z,10.13
2022-10-03T22:30:01.494Z,10.11
2022-10-03T22:35:01.791Z,10.33
2022-10-03T22:40:02.093Z,10.21
2022-10-03T22:45:01.616Z,10.13
2022-10-03T22:50:01.960Z,10.11
2022-10-03T22:55:01.750Z,10.08
2022-10-03T23:00:01.752Z,10.06
2022-10-03T23:05:02.377Z,10.27
2022-10-03T23:10:01.977Z,10.11
2022-10-03T23:15:02.163Z,10.04
2022-10-03T23:20:01.749Z,9.97
2022-10-03T23:25:01.986Z,9.81
2022-10-03T23:30:02.250Z,9.36
2022-10-03T23:35:02.084Z,9.16
2022-10-03T23:40:01.613Z,9.27
2022-10-03T23:45:02.133Z,9.3
2022-10-03T23:50:01.774Z,9.35
2022-10-03T23:55:01.748Z,9.38
